sensor_id;sensor_type;location;lat;lon;timestamp;pressure;altitude;pressure_sealevel;temperature;humidity
63343;BME280;49465;57.664;39.686;2023-03-19T00:02:17;102030.75;;;-1.30;39.55
63343;BME280;49465;57.664;39.686;2023-03-19T00:04:47;102030.75;;;-1.30;39.59
63343;BME280;49465;57.664;39.686;2023-03-19T00:07:16;102027.28;;;-1.32;39.35
63343;BME280;49465;57.664;39.686;2023-03-19T00:09:48;102031.66;;;-2.44;42.33
63343;BME280;49465;57.664;39.686;2023-03-19T00:12:14;102020.09;;;-1.61;39.97
63343;BME280;49465;57.664;39.686;2023-03-19T00:14:43;102018.50;;;-1.51;39.74
63343;BME280;49465;57.664;39.686;2023-03-19T00:17:21;102025.34;;;-1.50;39.79
63343;BME280;49465;57.664;39.686;2023-03-19T00:19:57;102003.94;;;-1.49;39.92
63343;BME280;49465;57.664;39.686;2023-03-19T00:22:27;102016.72;;;-1.53;39.86
63343;BME280;49465;57.664;39.686;2023-03-19T00:25:00;102015.84;;;-1.55;39.83
63343;BME280;49465;57.664;39.686;2023-03-19T00:27:32;102014.94;;;-2.69;42.30
63343;BME280;49465;57.664;39.686;2023-03-19T00:30:07;102010.28;;;-1.85;40.25
63343;BME280;49465;57.664;39.686;2023-03-19T00:32:36;102010.47;;;-1.74;39.82
63343;BME280;49465;57.664;39.686;2023-03-19T00:35:12;102006.28;;;-2.75;42.08
63343;BME280;49465;57.664;39.686;2023-03-19T00:37:43;102004.16;;;-1.94;40.71
63343;BME280;49465;57.664;39.686;2023-03-19T00:40:15;102003.47;;;-1.84;40.39
63343;BME280;49465;57.664;39.686;2023-03-19T00:42:49;102012.06;;;-1.82;40.03
63343;BME280;49465;57.664;39.686;2023-03-19T00:45:19;102005.19;;;-1.83;39.96
63343;BME280;49465;57.664;39.686;2023-03-19T00:47:53;102001.72;;;-1.85;40.06
63343;BME280;49465;57.664;39.686;2023-03-19T00:50:26;101997.38;;;-1.89;39.86
63343;BME280;49465;57.664;39.686;2023-03-19T00:53:01;101996.50;;;-1.91;40.25
63343;BME280;49465;57.664;39.686;2023-03-19T00:55:33;101997.31;;;-1.95;40.04
63343;BME280;49465;57.664;39.686;2023-03-19T00:58:02;101998.09;;;-2.00;39.93
63343;BME280;49465;57.664;39.686;2023-03-19T01:00:34;101993.75;;;-2.02;39.94
63343;BME280;49465;57.664;39.686;2023-03-19T01:03:09;101985.88;;;-3.15;41.80
63343;BME280;49465;57.664;39.686;2023-03-19T01:05:46;101990.78;;;-2.30;40.42
63343;BME280;49465;57.664;39.686;2023-03-19T01:08:19;101989.22;;;-2.20;39.83
63343;BME280;49465;57.664;39.686;2023-03-19T01:10:48;101986.63;;;-2.20;40.01
63343;BME280;49465;57.664;39.686;2023-03-19T01:13:18;101987.50;;;-2.20;39.86
63343;BME280;49465;57.664;39.686;2023-03-19T01:15:54;101985.75;;;-2.22;39.53
63343;BME280;49465;57.664;39.686;2023-03-19T01:18:24;101978.00;;;-2.24;39.59
63343;BME280;49465;57.664;39.686;2023-03-19T01:20:53;101982.25;;;-2.27;40.13
63343;BME280;49465;57.664;39.686;2023-03-19T01:23:23;101989.09;;;-2.29;39.71
63343;BME280;49465;57.664;39.686;2023-03-19T01:25:49;101983.03;;;-2.33;39.80
63343;BME280;49465;57.664;39.686;2023-03-19T01:28:25;101982.16;;;-2.35;39.58
63343;BME280;49465;57.664;39.686;2023-03-19T01:31:01;101987.22;;;-2.38;39.55
63343;BME280;49465;57.664;39.686;2023-03-19T01:33:30;101977.72;;;-2.42;39.93
63343;BME280;49465;57.664;39.686;2023-03-19T01:36:06;101981.13;;;-2.45;39.94
63343;BME280;49465;57.664;39.686;2023-03-19T01:38:33;101986.19;;;-2.48;39.35
63343;BME280;49465;57.664;39.686;2023-03-19T01:41:02;101981.00;;;-2.52;40.49
63343;BME280;49465;57.664;39.686;2023-03-19T01:43:35;101986.06;;;-2.55;40.67
63343;BME280;49465;57.664;39.686;2023-03-19T01:49:01;101981.16;;;-3.38;43.51
63343;BME280;49465;57.664;39.686;2023-03-19T01:51:33;101982.09;;;-2.87;42.01
63343;BME280;49465;57.664;39.686;2023-03-19T01:54:07;101979.69;;;-2.79;41.95
63343;BME280;49465;57.664;39.686;2023-03-19T01:56:46;101980.56;;;-2.77;42.10
63343;BME280;49465;57.664;39.686;2023-03-19T01:59:32;101972.88;;;-2.77;41.93
63343;BME280;49465;57.664;39.686;2023-03-19T02:04:42;101979.31;;;-2.99;42.23
63343;BME280;49465;57.664;39.686;2023-03-19T02:07:10;101980.38;;;-2.89;41.28
63343;BME280;49465;57.664;39.686;2023-03-19T02:09:42;101972.69;;;-2.86;41.41
63343;BME280;49465;57.664;39.686;2023-03-19T02:12:26;101964.13;;;-2.87;40.30
63343;BME280;49465;57.664;39.686;2023-03-19T02:15:01;101961.56;;;-2.87;40.76
63343;BME280;49465;57.664;39.686;2023-03-19T02:17:36;101961.56;;;-2.87;40.50
63343;BME280;49465;57.664;39.686;2023-03-19T02:20:33;101961.53;;;-2.88;41.11
63343;BME280;49465;57.664;39.686;2023-03-19T02:23:22;101957.25;;;-2.89;40.55
63343;BME280;49465;57.664;39.686;2023-03-19T02:26:10;101958.94;;;-2.91;40.97
63343;BME280;49465;57.664;39.686;2023-03-19T02:28:45;101952.06;;;-2.94;40.59
63343;BME280;49465;57.664;39.686;2023-03-19T02:31:14;101950.31;;;-2.95;40.46
63343;BME280;49465;57.664;39.686;2023-03-19T02:33:54;101953.69;;;-2.96;40.82
63343;BME280;49465;57.664;39.686;2023-03-19T02:36:34;101949.38;;;-2.99;40.53
63343;BME280;49465;57.664;39.686;2023-03-19T02:39:12;101951.09;;;-2.99;40.29
63343;BME280;49465;57.664;39.686;2023-03-19T02:41:44;101950.25;;;-3.00;40.61
63343;BME280;49465;57.664;39.686;2023-03-19T02:44:19;101951.03;;;-3.02;41.08
63343;BME280;49465;57.664;39.686;2023-03-19T02:46:49;101945.00;;;-3.04;40.83
63343;BME280;49465;57.664;39.686;2023-03-19T02:49:21;101939.88;;;-3.06;40.31
63343;BME280;49465;57.664;39.686;2023-03-19T02:51:52;101944.09;;;-3.06;40.29
63343;BME280;49465;57.664;39.686;2023-03-19T02:54:26;101950.91;;;-3.08;40.48
63343;BME280;49465;57.664;39.686;2023-03-19T02:56:58;101942.31;;;-3.10;40.04
63343;BME280;49465;57.664;39.686;2023-03-19T02:59:36;101944.84;;;-3.12;40.00
63343;BME280;49465;57.664;39.686;2023-03-19T03:02:07;101938.84;;;-3.14;40.02
63343;BME280;49465;57.664;39.686;2023-03-19T03:04:42;101939.66;;;-3.16;39.93
63343;BME280;49465;57.664;39.686;2023-03-19T03:07:12;101946.50;;;-3.17;40.15
63343;BME280;49465;57.664;39.686;2023-03-19T03:09:40;101944.72;;;-3.20;40.26
63343;BME280;49465;57.664;39.686;2023-03-19T03:12:10;101945.56;;;-3.21;40.27
63343;BME280;49465;57.664;39.686;2023-03-19T03:14:39;101940.41;;;-3.22;40.29
63343;BME280;49465;57.664;39.686;2023-03-19T03:17:06;101940.31;;;-4.48;43.23
63343;BME280;49465;57.664;39.686;2023-03-19T03:19:36;101938.19;;;-3.48;41.66
63343;BME280;49465;57.664;39.686;2023-03-19T03:22:07;101947.00;;;-3.35;40.67
63343;BME280;49465;57.664;39.686;2023-03-19T03:24:34;101944.53;;;-3.30;40.30
63343;BME280;49465;57.664;39.686;2023-03-19T03:27:04;101947.94;;;-3.30;39.81
63343;BME280;49465;57.664;39.686;2023-03-19T03:29:31;101941.09;;;-3.31;40.20
63343;BME280;49465;57.664;39.686;2023-03-19T03:32:00;101934.22;;;-3.32;40.20
63343;BME280;49465;57.664;39.686;2023-03-19T03:34:27;101932.53;;;-3.33;39.87
63343;BME280;49465;57.664;39.686;2023-03-19T03:36:57;101929.06;;;-3.35;40.39
63343;BME280;49465;57.664;39.686;2023-03-19T03:39:31;101932.44;;;-3.36;39.79
63343;BME280;49465;57.664;39.686;2023-03-19T03:42:04;101922.97;;;-3.40;39.97
63343;BME280;49465;57.664;39.686;2023-03-19T03:44:31;101924.63;;;-3.42;39.84
63343;BME280;49465;57.664;39.686;2023-03-19T03:47:01;101928.03;;;-3.43;39.85
63343;BME280;49465;57.664;39.686;2023-03-19T03:49:32;101928.59;;;-4.73;42.77
63343;BME280;49465;57.664;39.686;2023-03-19T03:52:02;101924.88;;;-3.72;40.81
63343;BME280;49465;57.664;39.686;2023-03-19T03:54:42;101927.75;;;-3.59;40.36
63343;BME280;49465;57.664;39.686;2023-03-19T03:57:16;101924.38;;;-3.56;39.47
63343;BME280;49465;57.664;39.686;2023-03-19T03:59:45;101919.25;;;-3.56;39.46
63343;BME280;49465;57.664;39.686;2023-03-19T04:02:18;101916.63;;;-3.58;39.42
63343;BME280;49465;57.664;39.686;2023-03-19T04:04:56;101911.47;;;-3.59;39.75
63343;BME280;49465;57.664;39.686;2023-03-19T04:07:33;101914.84;;;-3.62;39.78
63343;BME280;49465;57.664;39.686;2023-03-19T04:10:13;101908.88;;;-3.62;39.49
63343;BME280;49465;57.664;39.686;2023-03-19T04:12:50;101904.53;;;-3.65;40.29
63343;BME280;49465;57.664;39.686;2023-03-19T04:15:45;101905.41;;;-3.64;39.62
63343;BME280;49465;57.664;39.686;2023-03-19T04:18:23;101901.91;;;-3.68;39.78
63343;BME280;49465;57.664;39.686;2023-03-19T04:21:07;101891.66;;;-3.68;40.15
63343;BME280;49465;57.664;39.686;2023-03-19T04:23:34;101891.66;;;-3.68;39.96
63343;BME280;49465;57.664;39.686;2023-03-19T04:26:10;101894.22;;;-3.68;39.94
63343;BME280;49465;57.664;39.686;2023-03-19T04:28:47;101890.81;;;-3.68;40.52
63343;BME280;49465;57.664;39.686;2023-03-19T04:31:13;101890.88;;;-3.64;40.36
63343;BME280;49465;57.664;39.686;2023-03-19T04:33:43;101893.38;;;-3.67;40.97
63343;BME280;49465;57.664;39.686;2023-03-19T04:36:12;101883.13;;;-3.68;41.86
63343;BME280;49465;57.664;39.686;2023-03-19T04:38:44;101890.81;;;-3.67;42.47
63343;BME280;49465;57.664;39.686;2023-03-19T04:41:19;101887.44;;;-3.66;42.51
63343;BME280;49465;57.664;39.686;2023-03-19T04:43:59;101878.03;;;-3.65;43.71
63343;BME280;49465;57.664;39.686;2023-03-19T04:46:33;101880.63;;;-3.64;44.58
63343;BME280;49465;57.664;39.686;2023-03-19T04:49:16;101890.06;;;-3.61;44.80
63343;BME280;49465;57.664;39.686;2023-03-19T04:51:51;101878.97;;;-3.62;46.78
63343;BME280;49465;57.664;39.686;2023-03-19T04:54:27;101881.72;;;-3.51;46.83
63343;BME280;49465;57.664;39.686;2023-03-19T04:56:57;101877.47;;;-3.50;45.54
63343;BME280;49465;57.664;39.686;2023-03-19T04:59:32;101875.84;;;-3.45;44.29
63343;BME280;49465;57.664;39.686;2023-03-19T05:02:09;101877.72;;;-3.36;44.10
63343;BME280;49465;57.664;39.686;2023-03-19T05:04:44;101876.09;;;-3.33;45.74
63343;BME280;49465;57.664;39.686;2023-03-19T05:07:14;101871.84;;;-3.29;45.93
63343;BME280;49465;57.664;39.686;2023-03-19T05:09:43;101872.88;;;-3.20;46.30
63343;BME280;49465;57.664;39.686;2023-03-19T05:12:13;101877.34;;;-3.09;45.93
63343;BME280;49465;57.664;39.686;2023-03-19T05:14:45;101869.75;;;-3.03;45.06
63343;BME280;49465;57.664;39.686;2023-03-19T05:17:23;101866.31;;;-3.02;47.62
63343;BME280;49465;57.664;39.686;2023-03-19T05:19:50;101859.75;;;-2.88;45.23
63343;BME280;49465;57.664;39.686;2023-03-19T05:22:31;101858.97;;;-2.81;45.72
63343;BME280;49465;57.664;39.686;2023-03-19T05:25:12;101866.13;;;-2.63;44.78
63343;BME280;49465;57.664;39.686;2023-03-19T05:27:48;101863.75;;;-2.47;44.43
63343;BME280;49465;57.664;39.686;2023-03-19T05:30:20;101859.69;;;-2.33;44.24
63343;BME280;49465;57.664;39.686;2023-03-19T05:32:58;101847.03;;;-2.19;42.97
63343;BME280;49465;57.664;39.686;2023-03-19T05:35:26;101856.59;;;-2.07;44.36
63343;BME280;49465;57.664;39.686;2023-03-19T05:37:59;101852.50;;;-1.93;42.49
63343;BME280;49465;57.664;39.686;2023-03-19T05:40:29;101848.22;;;-1.91;44.67
63343;BME280;49465;57.664;39.686;2023-03-19T05:43:01;101849.25;;;-1.75;44.42
63343;BME280;49465;57.664;39.686;2023-03-19T05:45:31;101850.84;;;-2.52;45.53
63343;BME280;49465;57.664;39.686;2023-03-19T05:47:57;101842.53;;;-1.64;43.99
63343;BME280;49465;57.664;39.686;2023-03-19T05:50:29;101841.09;;;-1.37;42.38
63343;BME280;49465;57.664;39.686;2023-03-19T05:52:59;101832.72;;;-1.17;42.67
63343;BME280;49465;57.664;39.686;2023-03-19T05:55:32;101829.16;;;-2.08;44.46
63343;BME280;49465;57.664;39.686;2023-03-19T05:58:03;101825.06;;;-1.07;42.45
63343;BME280;49465;57.664;39.686;2023-03-19T06:00:36;101826.19;;;-1.70;44.85
63343;BME280;49465;57.664;39.686;2023-03-19T06:03:05;101821.81;;;-0.81;43.40
63343;BME280;49465;57.664;39.686;2023-03-19T06:05:32;101816.06;;;-1.53;44.39
63343;BME280;49465;57.664;39.686;2023-03-19T06:07:58;101816.81;;;-0.55;43.91
63343;BME280;49465;57.664;39.686;2023-03-19T06:10:25;101806.03;;;-1.24;44.43
63343;BME280;49465;57.664;39.686;2023-03-19T06:12:55;101809.25;;;-0.24;43.73
63343;BME280;49465;57.664;39.686;2023-03-19T06:15:21;101802.03;;;-0.90;44.89
63343;BME280;49465;57.664;39.686;2023-03-19T06:17:48;101797.34;;;0.06;43.60
63343;BME280;49465;57.664;39.686;2023-03-19T06:20:14;101795.72;;;0.40;42.96
63343;BME280;49465;57.664;39.686;2023-03-19T06:22:41;101792.03;;;-0.39;44.60
63343;BME280;49465;57.664;39.686;2023-03-19T06:25:10;101793.16;;;0.58;43.68
63343;BME280;49465;57.664;39.686;2023-03-19T06:27:42;101791.31;;;0.05;44.85
63343;BME280;49465;57.664;39.686;2023-03-19T06:30:09;101784.41;;;-0.02;44.72
63343;BME280;49465;57.664;39.686;2023-03-19T06:32:38;101786.19;;;0.13;45.08
63343;BME280;49465;57.664;39.686;2023-03-19T06:35:11;101790.56;;;1.22;43.45
63343;BME280;49465;57.664;39.686;2023-03-19T06:37:40;101781.13;;;0.57;44.59
63343;BME280;49465;57.664;39.686;2023-03-19T06:40:23;101779.41;;;0.96;44.19
63343;BME280;49465;57.664;39.686;2023-03-19T06:42:54;101781.97;;;0.90;44.57
63343;BME280;49465;57.664;39.686;2023-03-19T06:45:30;101771.59;;;1.23;45.09
63343;BME280;49465;57.664;39.686;2023-03-19T06:48:02;101772.47;;;1.18;45.18
63343;BME280;49465;57.664;39.686;2023-03-19T06:50:34;101763.84;;;1.19;44.74
63343;BME280;49465;57.664;39.686;2023-03-19T06:53:04;101765.50;;;1.48;44.40
63343;BME280;49465;57.664;39.686;2023-03-19T06:55:36;101753.84;;;2.35;43.64
63343;BME280;49465;57.664;39.686;2023-03-19T06:58:11;101765.31;;;1.90;43.90
63343;BME280;49465;57.664;39.686;2023-03-19T07:00:49;101754.97;;;1.94;44.24
63343;BME280;49465;57.664;39.686;2023-03-19T07:03:21;101754.97;;;1.94;43.75
63343;BME280;49465;57.664;39.686;2023-03-19T07:05:51;101749.63;;;2.17;43.90
63343;BME280;49465;57.664;39.686;2023-03-19T07:08:25;101741.78;;;2.34;43.43
63343;BME280;49465;57.664;39.686;2023-03-19T07:11:08;101750.28;;;2.50;43.09
63343;BME280;49465;57.664;39.686;2023-03-19T07:13:37;101743.34;;;2.57;43.40
63343;BME280;49465;57.664;39.686;2023-03-19T07:16:09;101745.69;;;2.86;42.85
63343;BME280;49465;57.664;39.686;2023-03-19T07:18:41;101739.53;;;2.96;42.89
63343;BME280;49465;57.664;39.686;2023-03-19T07:21:22;101738.41;;;3.21;42.31
63343;BME280;49465;57.664;39.686;2023-03-19T07:23:51;101734.91;;;3.25;41.76
63343;BME280;49465;57.664;39.686;2023-03-19T07:26:27;101739.84;;;3.48;41.71
63343;BME280;49465;57.664;39.686;2023-03-19T07:28:59;101735.50;;;3.48;41.63
63343;BME280;49465;57.664;39.686;2023-03-19T07:31:26;101731.88;;;3.63;41.83
63343;BME280;49465;57.664;39.686;2023-03-19T07:34:01;101727.34;;;3.79;41.72
63343;BME280;49465;57.664;39.686;2023-03-19T07:36:31;101728.00;;;3.95;40.83
63343;BME280;49465;57.664;39.686;2023-03-19T07:39:00;101719.16;;;4.10;41.76
63343;BME280;49465;57.664;39.686;2023-03-19T07:41:34;101722.34;;;4.27;41.00
63343;BME280;49465;57.664;39.686;2023-03-19T07:44:06;101728.03;;;4.51;40.40
63343;BME280;49465;57.664;39.686;2023-03-19T07:46:32;101721.13;;;4.50;40.86
63343;BME280;49465;57.664;39.686;2023-03-19T07:49:01;101720.94;;;4.61;40.61
63343;BME280;49465;57.664;39.686;2023-03-19T07:51:39;101709.28;;;4.83;40.41
63343;BME280;49465;57.664;39.686;2023-03-19T07:54:19;101706.44;;;4.97;39.41
63343;BME280;49465;57.664;39.686;2023-03-19T07:56:51;101708.88;;;5.06;40.82
63343;BME280;49465;57.664;39.686;2023-03-19T07:59:20;101711.22;;;5.20;40.98
63343;BME280;49465;57.664;39.686;2023-03-19T08:01:52;101697.81;;;5.40;39.87
63343;BME280;49465;57.664;39.686;2023-03-19T08:04:26;101696.19;;;5.34;40.96
63343;BME280;49465;57.664;39.686;2023-03-19T08:06:58;101700.28;;;5.46;40.36
63343;BME280;49465;57.664;39.686;2023-03-19T08:09:30;101701.47;;;5.72;40.64
63343;BME280;49465;57.664;39.686;2023-03-19T08:12:05;101691.47;;;5.92;40.15
63343;BME280;49465;57.664;39.686;2023-03-19T08:14:35;101690.38;;;6.04;39.83
63343;BME280;49465;57.664;39.686;2023-03-19T08:17:12;101689.13;;;6.21;39.23
63343;BME280;49465;57.664;39.686;2023-03-19T08:19:41;101685.56;;;6.23;38.92
63343;BME280;49465;57.664;39.686;2023-03-19T08:22:10;101680.09;;;6.36;39.19
63343;BME280;49465;57.664;39.686;2023-03-19T08:24:37;101674.09;;;6.32;39.54
63343;BME280;49465;57.664;39.686;2023-03-19T08:27:04;101676.41;;;6.43;39.25
63343;BME280;49465;57.664;39.686;2023-03-19T08:29:33;101674.22;;;6.60;38.02
63343;BME280;49465;57.664;39.686;2023-03-19T08:32:03;101667.00;;;6.71;38.88
63343;BME280;49465;57.664;39.686;2023-03-19T08:34:32;101663.25;;;6.82;39.30
63343;BME280;49465;57.664;39.686;2023-03-19T08:37:08;101660.06;;;7.03;39.06
63343;BME280;49465;57.664;39.686;2023-03-19T08:39:35;101650.72;;;6.96;38.73
63343;BME280;49465;57.664;39.686;2023-03-19T08:42:04;101651.31;;;7.06;38.69
63343;BME280;49465;57.664;39.686;2023-03-19T08:44:33;101649.34;;;7.14;38.18
63343;BME280;49465;57.664;39.686;2023-03-19T08:47:00;101644.66;;;7.25;38.08
63343;BME280;49465;57.664;39.686;2023-03-19T08:49:30;101640.09;;;7.33;38.14
63343;BME280;49465;57.664;39.686;2023-03-19T08:52:05;101635.53;;;7.40;37.28
63343;BME280;49465;57.664;39.686;2023-03-19T08:54:39;101631.16;;;7.70;38.05
63343;BME280;49465;57.664;39.686;2023-03-19T08:57:18;101632.00;;;7.71;37.38
63343;BME280;49465;57.664;39.686;2023-03-19T09:00:01;101629.94;;;7.81;36.26
63343;BME280;49465;57.664;39.686;2023-03-19T09:02:35;101631.59;;;7.83;37.43
63343;BME280;49465;57.664;39.686;2023-03-19T09:05:05;101623.13;;;7.77;37.93
63343;BME280;49465;57.664;39.686;2023-03-19T09:07:40;101617.09;;;7.75;37.81
63343;BME280;49465;57.664;39.686;2023-03-19T09:10:20;101618.81;;;8.02;37.46
63343;BME280;49465;57.664;39.686;2023-03-19T09:12:58;101614.16;;;7.84;37.69
63343;BME280;49465;57.664;39.686;2023-03-19T09:15:30;101616.34;;;7.98;36.88
63343;BME280;49465;57.664;39.686;2023-03-19T09:18:06;101608.13;;;8.10;37.28
63343;BME280;49465;57.664;39.686;2023-03-19T09:20:35;101599.22;;;7.89;36.51
63343;BME280;49465;57.664;39.686;2023-03-19T09:23:04;101596.19;;;8.01;36.78
63343;BME280;49465;57.664;39.686;2023-03-19T09:25:36;101596.00;;;8.07;37.39
63343;BME280;49465;57.664;39.686;2023-03-19T09:28:05;101589.53;;;7.92;37.12
63343;BME280;49465;57.664;39.686;2023-03-19T09:30:34;101576.47;;;7.92;36.84
63343;BME280;49465;57.664;39.686;2023-03-19T09:33:05;101575.47;;;7.97;37.20
63343;BME280;49465;57.664;39.686;2023-03-19T09:35:34;101574.66;;;7.95;36.82
63343;BME280;49465;57.664;39.686;2023-03-19T09:38:17;101582.78;;;8.12;36.77
63343;BME280;49465;57.664;39.686;2023-03-19T09:40:47;101575.88;;;8.09;36.21
63343;BME280;49465;57.664;39.686;2023-03-19T09:45:56;101570.88;;;8.03;36.90
63343;BME280;49465;57.664;39.686;2023-03-19T09:48:55;101573.88;;;8.44;38.02
63343;BME280;49465;57.664;39.686;2023-03-19T09:54:34;101564.44;;;8.39;36.29
63343;BME280;49465;57.664;39.686;2023-03-19T09:57:08;101559.38;;;8.34;36.49
63343;BME280;49465;57.664;39.686;2023-03-19T09:59:55;101555.09;;;8.33;35.32
63343;BME280;49465;57.664;39.686;2023-03-19T10:16:41;101508.91;;;8.34;35.22
63343;BME280;49465;57.664;39.686;2023-03-19T10:19:10;101504.03;;;8.23;36.66
63343;BME280;49465;57.664;39.686;2023-03-19T10:21:54;101506.91;;;8.40;36.07
63343;BME280;49465;57.664;39.686;2023-03-19T10:24:31;101495.97;;;8.29;34.58
63343;BME280;49465;57.664;39.686;2023-03-19T10:27:24;101494.69;;;8.41;34.16
63343;BME280;49465;57.664;39.686;2023-03-19T10:29:55;101487.72;;;8.16;35.13
63343;BME280;49465;57.664;39.686;2023-03-19T10:32:43;101492.25;;;8.61;35.37
63343;BME280;49465;57.664;39.686;2023-03-19T10:35:44;101497.84;;;8.50;33.61
63343;BME280;49465;57.664;39.686;2023-03-19T10:38:22;101485.69;;;8.49;35.72
63343;BME280;49465;57.664;39.686;2023-03-19T10:41:23;101475.53;;;8.65;35.82
63343;BME280;49465;57.664;39.686;2023-03-19T10:46:50;101469.31;;;8.19;35.01
63343;BME280;49465;57.664;39.686;2023-03-19T10:49:22;101474.53;;;8.19;35.18
63343;BME280;49465;57.664;39.686;2023-03-19T10:51:55;101466.25;;;8.33;34.71
63343;BME280;49465;57.664;39.686;2023-03-19T10:54:26;101465.94;;;8.41;34.55
63343;BME280;49465;57.664;39.686;2023-03-19T10:56:58;101459.34;;;8.30;34.28
63343;BME280;49465;57.664;39.686;2023-03-19T11:02:21;101448.25;;;8.73;35.52
63343;BME280;49465;57.664;39.686;2023-03-19T11:07:37;101440.41;;;8.49;36.22
63343;BME280;49465;57.664;39.686;2023-03-19T11:10:19;101437.41;;;8.82;36.25
63343;BME280;49465;57.664;39.686;2023-03-19T11:12:55;101432.47;;;8.74;35.27
63343;BME280;49465;57.664;39.686;2023-03-19T11:15:36;101435.97;;;8.97;34.64
63343;BME280;49465;57.664;39.686;2023-03-19T11:18:23;101428.16;;;9.17;36.49
63343;BME280;49465;57.664;39.686;2023-03-19T11:21:00;101423.97;;;8.91;34.08
63343;BME280;49465;57.664;39.686;2023-03-19T11:23:36;101421.63;;;8.85;35.26
63343;BME280;49465;57.664;39.686;2023-03-19T11:26:03;101424.78;;;8.93;35.52
63343;BME280;49465;57.664;39.686;2023-03-19T11:28:40;101412.31;;;9.00;34.88
63343;BME280;49465;57.664;39.686;2023-03-19T11:31:19;101416.19;;;9.34;35.71
63343;BME280;49465;57.664;39.686;2023-03-19T11:37:16;101414.19;;;9.61;35.15
63343;BME280;49465;57.664;39.686;2023-03-19T11:40:08;101404.44;;;9.22;35.16
63343;BME280;49465;57.664;39.686;2023-03-19T11:46:11;101382.66;;;9.42;34.54
63343;BME280;49465;57.664;39.686;2023-03-19T11:51:50;101378.66;;;9.95;35.37
63343;BME280;49465;57.664;39.686;2023-03-19T11:54:43;101366.47;;;9.94;35.17
63343;BME280;49465;57.664;39.686;2023-03-19T12:08:38;101350.13;;;10.26;32.79
63343;BME280;49465;57.664;39.686;2023-03-19T12:28:34;101313.81;;;10.57;34.37
63343;BME280;49465;57.664;39.686;2023-03-19T12:31:35;101309.94;;;10.64;32.19
63343;BME280;49465;57.664;39.686;2023-03-19T12:40:32;101298.59;;;10.63;32.25
63343;BME280;49465;57.664;39.686;2023-03-19T12:46:13;101284.97;;;10.92;34.43
63343;BME280;49465;57.664;39.686;2023-03-19T12:51:22;101281.97;;;10.64;33.25
63343;BME280;49465;57.664;39.686;2023-03-19T12:59:57;101272.09;;;11.04;34.17
63343;BME280;49465;57.664;39.686;2023-03-19T13:02:37;101274.56;;;10.90;34.03
63343;BME280;49465;57.664;39.686;2023-03-19T13:05:34;101272.22;;;11.19;32.92
63343;BME280;49465;57.664;39.686;2023-03-19T13:10:47;101258.50;;;10.79;33.66
63343;BME280;49465;57.664;39.686;2023-03-19T13:13:51;101251.53;;;11.30;32.08
63343;BME280;49465;57.664;39.686;2023-03-19T13:19:33;101241.53;;;11.37;34.49
63343;BME280;49465;57.664;39.686;2023-03-19T13:22:09;101248.16;;;11.11;33.35
63343;BME280;49465;57.664;39.686;2023-03-19T13:24:39;101249.63;;;10.99;33.63
63343;BME280;49465;57.664;39.686;2023-03-19T13:27:23;101239.75;;;11.04;32.74
63343;BME280;49465;57.664;39.686;2023-03-19T13:30:17;101238.38;;;11.47;32.26
63343;BME280;49465;57.664;39.686;2023-03-19T13:32:50;101226.09;;;10.97;32.27
63343;BME280;49465;57.664;39.686;2023-03-19T13:38:26;101214.00;;;11.28;32.83
63343;BME280;49465;57.664;39.686;2023-03-19T13:40:59;101214.88;;;11.11;33.25
63343;BME280;49465;57.664;39.686;2023-03-19T13:48:54;101207.84;;;11.29;32.86
63343;BME280;49465;57.664;39.686;2023-03-19T13:51:28;101209.25;;;11.01;33.16
63343;BME280;49465;57.664;39.686;2023-03-19T13:59:39;101207.56;;;11.18;32.55
63343;BME280;49465;57.664;39.686;2023-03-19T14:05:00;101202.13;;;11.21;33.58
63343;BME280;49465;57.664;39.686;2023-03-19T14:07:32;101194.53;;;10.99;33.12
63343;BME280;49465;57.664;39.686;2023-03-19T14:10:07;101203.88;;;11.04;33.26
63343;BME280;49465;57.664;39.686;2023-03-19T14:12:47;101191.88;;;11.16;34.29
63343;BME280;49465;57.664;39.686;2023-03-19T14:15:24;101191.44;;;11.08;33.62
63343;BME280;49465;57.664;39.686;2023-03-19T14:18:04;101182.03;;;11.04;33.97
63343;BME280;49465;57.664;39.686;2023-03-19T14:21:05;101177.41;;;11.25;30.67
63343;BME280;49465;57.664;39.686;2023-03-19T14:23:37;101171.25;;;10.75;33.41
63343;BME280;49465;57.664;39.686;2023-03-19T14:29:01;101178.91;;;11.13;34.91
63343;BME280;49465;57.664;39.686;2023-03-19T14:34:34;101177.03;;;10.82;33.56
63343;BME280;49465;57.664;39.686;2023-03-19T14:39:58;101176.25;;;10.80;34.17
63343;BME280;49465;57.664;39.686;2023-03-19T14:42:59;101175.00;;;11.04;34.04
63343;BME280;49465;57.664;39.686;2023-03-19T14:53:51;101174.31;;;10.48;32.96
63343;BME280;49465;57.664;39.686;2023-03-19T14:56:34;101179.56;;;10.48;33.60
63343;BME280;49465;57.664;39.686;2023-03-19T14:59:13;101168.03;;;10.35;34.16
63343;BME280;49465;57.664;39.686;2023-03-19T15:01:52;101167.09;;;10.54;34.51
63343;BME280;49465;57.664;39.686;2023-03-19T15:04:25;101164.88;;;10.27;33.82
63343;BME280;49465;57.664;39.686;2023-03-19T15:07:01;101159.03;;;10.22;34.10
63343;BME280;49465;57.664;39.686;2023-03-19T15:09:33;101160.97;;;9.99;33.50
63343;BME280;49465;57.664;39.686;2023-03-19T15:15:15;101161.00;;;10.36;34.49
63343;BME280;49465;57.664;39.686;2023-03-19T15:17:50;101163.41;;;10.04;33.99
63343;BME280;49465;57.664;39.686;2023-03-19T15:20:34;101168.94;;;9.98;33.90
63343;BME280;49465;57.664;39.686;2023-03-19T15:23:04;101162.28;;;9.72;34.14
63343;BME280;49465;57.664;39.686;2023-03-19T15:25:48;101157.50;;;9.99;33.86
63343;BME280;49465;57.664;39.686;2023-03-19T15:28:15;101152.53;;;9.56;34.17
63343;BME280;49465;57.664;39.686;2023-03-19T15:30:58;101147.94;;;9.80;33.72
63343;BME280;49465;57.664;39.686;2023-03-19T15:33:40;101147.28;;;9.75;33.80